All Spectrum Aviation - Van Nuys Airport - KVNY

HOME

Van Nuys Tower Recordings

Condor Squadron KVNY Webcam

Visit our Electronics Store

Condor Squadron Webcam - Van Nuys Airport - KVNY
Picture taken: Mon, 05 Dec 2016 04:28:19 -0800
YouTube Channel!    Latest Timelapse Movie    Full Size Image    Regular Size Image    

2016/12/05 11:51 KVNY 051151Z AUTO 00000KT 10SM CLR 07/01 A2994 RMK AO2 SLP134 T00720011 10122 20061 58008

HOME

Van Nuys Tower Recordings

Condor Squadron KVNY Webcam

Visit our Electronics Store